Pagrindinis puslapis
METAR-TAF:

METAR-TAF

Oro uostai :

Heringsdorf, Vokietija

platuma: 53-53N, ilguma: 014-09E, Aukštis: 28 m

Dabartinis oras

Ataskaita buvo paskelbta 40 minutes, ne 08:50 UTC
Vėjas 8 kt iš Vakarų
Temperatūra 12°C
Drėgmė 82%
Slėgis 1027 hPa
Matomumas 10 km arba daugiau
Su prošvaistėmis ne aukštis 4500 ft

METAR: EDAH 200850Z 26008KT 9999 BKN045 12/09 Q1027

Laikas: 11:30 (09:30 UTC)

Prognozė

Ataskaita buvo paskelbta 1 valandą ir 30 minutes, ne 08:00 UTC
Prognozė galioja nuo 20 metu 09 UTC su 20 metu 18 UTC
Vėjas 8 kt iš Vakarų/Pietvakarių
Matomumas 10 km arba daugiau
Su prošvaistėmis ne aukštis 3500 ft

TAF: EDAH 200800Z 2009/2018 25008KT 9999 BKN035

Orai ataskaitas ir orų prognozės (METAR, TAF).

turimą stotys yra geltonos ir raudonos taškus žemėlapyje.

Perkelti pele per norėdami pamatyti stoties vardą.

Tada spustelėkite, norėdami matyti oro stebėjimo ir prognozės.

Norėdami pakeisti žemėlapį: spustelėkite ant žalios mygtukų su juodo kryžiaus žemyn,; žalią mygtuką su brūkšneliu, jei norite nutolinti; arba žalių rodyklių gretimoms žemėlapius.


METAR-TAF: